createdAt,value
2024-05-09T00:02:43.078Z,18.06
2024-05-09T00:06:44.673Z,18.03
2024-05-09T00:10:46.402Z,17.94
2024-05-09T00:14:48.258Z,17.95
2024-05-09T00:18:49.946Z,17.90
2024-05-09T00:22:51.900Z,17.96
2024-05-09T00:26:53.512Z,17.86
2024-05-09T00:30:55.152Z,17.88
2024-05-09T00:34:56.828Z,17.88
2024-05-09T00:38:58.511Z,17.81
2024-05-09T00:43:00.057Z,17.76
2024-05-09T00:47:01.672Z,17.66
2024-05-09T00:51:03.808Z,17.62
2024-05-09T00:55:07.645Z,17.66
2024-05-09T00:59:09.404Z,17.55
2024-05-09T01:03:13.172Z,17.63
2024-05-09T01:07:16.060Z,17.57
2024-05-09T01:11:18.490Z,17.55
2024-05-09T01:15:20.197Z,17.49
2024-05-09T01:19:30.362Z,17.46
2024-05-09T01:23:32.215Z,17.17
2024-05-09T01:27:33.896Z,17.48
2024-05-09T01:31:35.579Z,17.44
2024-05-09T01:35:37.449Z,17.41
2024-05-09T01:39:39.238Z,17.35
2024-05-09T01:43:40.791Z,17.33
2024-05-09T01:47:42.742Z,17.23
2024-05-09T01:51:44.478Z,17.24
2024-05-09T01:55:46.202Z,17.17
2024-05-09T01:59:47.839Z,17.22
2024-05-09T02:03:49.926Z,17.18
2024-05-09T02:07:51.632Z,17.01
2024-05-09T02:11:53.358Z,17.08
2024-05-09T02:15:56.067Z,17.05
2024-05-09T02:19:57.753Z,17.01
2024-05-09T02:23:59.515Z,16.98
2024-05-09T02:28:01.338Z,16.97
2024-05-09T02:32:03.069Z,16.96
2024-05-09T02:36:05.620Z,16.92
2024-05-09T02:40:11.704Z,16.87
2024-05-09T02:44:16.353Z,16.65
2024-05-09T02:48:18.125Z,16.44
2024-05-09T02:52:19.887Z,16.78
2024-05-09T02:56:21.532Z,16.75
2024-05-09T03:00:29.722Z,16.71
2024-05-09T03:04:38.970Z,16.68
2024-05-09T03:08:44.630Z,16.67
2024-05-09T03:12:46.254Z,16.62
2024-05-09T03:16:47.910Z,16.58
2024-05-09T03:20:49.641Z,16.44
2024-05-09T03:24:51.374Z,16.49
2024-05-09T03:28:52.940Z,16.49
2024-05-09T03:32:55.242Z,16.40
2024-05-09T03:36:56.920Z,16.40
2024-05-09T03:40:58.552Z,16.37
2024-05-09T03:45:00.192Z,16.33
2024-05-09T03:49:01.880Z,16.32
2024-05-09T03:53:03.859Z,16.16
2024-05-09T03:57:05.510Z,16.24
2024-05-09T04:01:07.122Z,16.23
2024-05-09T04:05:09.402Z,16.16
2024-05-09T04:09:10.977Z,16.11
2024-05-09T04:13:12.859Z,16.05
2024-05-09T04:17:14.546Z,16.14
2024-05-09T04:21:16.186Z,16.00
2024-05-09T04:25:17.795Z,16.02
2024-05-09T04:29:19.427Z,16.03
2024-05-09T04:33:21.177Z,16.02
2024-05-09T04:37:23.044Z,15.76
2024-05-09T04:41:24.666Z,15.98
2024-05-09T04:45:26.287Z,15.93
2024-05-09T04:49:27.952Z,15.92
2024-05-09T04:53:29.690Z,15.90
2024-05-09T04:57:31.270Z,15.88
2024-05-09T05:01:32.900Z,15.83
2024-05-09T05:05:34.673Z,15.84
2024-05-09T05:09:36.428Z,15.82
2024-05-09T05:13:40.847Z,15.76
2024-05-09T05:17:43.365Z,15.75
2024-05-09T05:21:45.108Z,15.51
2024-05-09T05:25:48.523Z,15.75
2024-05-09T05:29:50.377Z,15.74
2024-05-09T05:33:52.095Z,15.75
2024-05-09T05:37:53.766Z,15.50
2024-05-09T05:41:55.374Z,15.70
2024-05-09T05:45:56.950Z,15.71
2024-05-09T05:49:58.536Z,15.73
2024-05-09T05:54:00.135Z,15.67
2024-05-09T05:58:02.583Z,15.67
2024-05-09T06:02:04.419Z,15.66
2024-05-09T06:06:07.282Z,15.66
2024-05-09T06:10:17.247Z,15.69
2024-05-09T06:14:23.201Z,15.65
2024-05-09T06:18:25.354Z,15.65
2024-05-09T06:22:27.043Z,15.63
2024-05-09T06:26:28.757Z,15.65
2024-05-09T06:30:38.388Z,15.68
2024-05-09T06:34:43.135Z,15.63
2024-05-09T06:38:44.954Z,15.69
2024-05-09T06:42:46.663Z,15.69
2024-05-09T06:46:48.325Z,15.69
2024-05-09T06:50:50.566Z,15.62
2024-05-09T06:54:52.359Z,15.66
2024-05-09T06:58:54.460Z,15.70
2024-05-09T07:02:56.258Z,15.63
2024-05-09T07:06:58.026Z,15.74
2024-05-09T07:11:00.694Z,15.48
2024-05-09T07:15:02.348Z,15.76
2024-05-09T07:19:04.190Z,15.72
2024-05-09T07:23:09.100Z,15.67
2024-05-09T07:27:10.762Z,15.72
2024-05-09T07:31:12.421Z,15.71
2024-05-09T07:35:14.240Z,15.78
2024-05-09T07:39:15.909Z,15.78
2024-05-09T07:43:17.591Z,15.79
2024-05-09T07:48:29.094Z,15.81
2024-05-09T07:55:45.431Z,15.84
2024-05-09T07:59:47.129Z,15.84
2024-05-09T08:03:48.982Z,15.87
2024-05-09T08:07:50.975Z,15.91
2024-05-09T08:11:52.882Z,15.93
2024-05-09T08:15:54.612Z,15.92
2024-05-09T08:19:56.967Z,15.84
2024-05-09T08:23:58.526Z,15.96
2024-05-09T08:28:00.201Z,16.01
2024-05-09T08:32:02.082Z,15.97
2024-05-09T08:36:03.901Z,16.05
2024-05-09T08:40:08.446Z,16.00
2024-05-09T08:44:10.269Z,16.06
2024-05-09T08:48:14.141Z,16.12
2024-05-09T08:52:17.832Z,16.16
2024-05-09T08:56:20.677Z,16.19
2024-05-09T09:00:33.403Z,16.21
2024-05-09T09:04:40.461Z,16.26
2024-05-09T09:08:42.471Z,16.28
2024-05-09T09:12:44.559Z,16.31
2024-05-09T09:16:46.376Z,16.32
2024-05-09T09:20:47.980Z,16.37
2024-05-09T09:24:49.604Z,16.30
2024-05-09T09:28:51.802Z,16.38
2024-05-09T09:32:55.155Z,16.41
2024-05-09T09:37:03.583Z,16.50
2024-05-09T09:41:07.638Z,16.50
2024-05-09T09:45:10.795Z,16.51
2024-05-09T09:49:12.711Z,16.58
2024-05-09T09:53:16.060Z,16.65
2024-05-09T09:57:19.511Z,16.68
2024-05-09T10:01:21.352Z,16.67
2024-05-09T10:05:23.456Z,16.75
2024-05-09T10:09:26.010Z,16.72
2024-05-09T10:13:34.967Z,16.80
2024-05-09T10:17:42.385Z,16.83
2024-05-09T10:21:47.258Z,16.87
2024-05-09T10:26:05.507Z,16.77
2024-05-09T10:30:14.392Z,16.95
2024-05-09T10:34:23.997Z,17.00
2024-05-09T10:38:26.349Z,17.03
2024-05-09T10:42:29.123Z,16.86
2024-05-09T10:46:30.960Z,17.04
2024-05-09T10:50:34.464Z,17.14
2024-05-09T10:54:39.673Z,17.14
2024-05-09T10:58:41.858Z,17.11
2024-05-09T11:02:44.175Z,17.24
2024-05-09T11:06:47.037Z,17.24
2024-05-09T11:10:54.160Z,17.31
2024-05-09T11:14:55.884Z,17.35
2024-05-09T11:18:58.940Z,17.38
2024-05-09T11:23:05.204Z,17.36
2024-05-09T11:27:06.900Z,17.45
2024-05-09T11:31:10.087Z,17.52
2024-05-09T11:35:12.433Z,17.56
2024-05-09T11:39:14.732Z,17.59
2024-05-09T11:43:16.805Z,17.58
2024-05-09T11:47:18.675Z,17.61
2024-05-09T11:51:20.302Z,17.71
2024-05-09T11:55:26.734Z,17.75
2024-05-09T11:59:30.378Z,17.77
2024-05-09T12:03:32.296Z,17.82
2024-05-09T12:07:34.164Z,17.85
2024-05-09T12:11:36.153Z,17.88
2024-05-09T12:15:38.924Z,17.93
2024-05-09T12:19:41.095Z,17.95
2024-05-09T12:23:42.826Z,17.95
2024-05-09T12:27:44.568Z,17.98
2024-05-09T12:31:46.623Z,17.87
2024-05-09T12:35:50.732Z,18.11
2024-05-09T12:39:52.772Z,18.02
2024-05-09T12:43:54.359Z,18.19
2024-05-09T12:47:56.143Z,18.23
2024-05-09T12:51:57.890Z,18.27
2024-05-09T12:56:02.373Z,18.28
2024-05-09T13:00:09.297Z,18.25
2024-05-09T13:04:13.274Z,18.29
2024-05-09T13:08:15.479Z,18.26
2024-05-09T13:12:17.240Z,18.38
2024-05-09T13:16:19.040Z,18.43
2024-05-09T13:20:29.170Z,18.33
2024-05-09T13:24:34.784Z,18.48
2024-05-09T13:28:36.450Z,18.44
2024-05-09T13:32:38.139Z,18.53
2024-05-09T13:36:39.926Z,18.55
2024-05-09T13:40:41.857Z,18.58
2024-05-09T13:44:43.649Z,18.59
2024-05-09T13:48:45.494Z,18.59
2024-05-09T13:52:47.203Z,18.62
2024-05-09T13:56:49.283Z,18.49
2024-05-09T14:00:51.138Z,18.69
2024-05-09T14:04:52.905Z,18.72
2024-05-09T14:08:54.611Z,18.74
2024-05-09T14:12:56.321Z,18.74
2024-05-09T14:16:58.180Z,18.77
2024-05-09T14:20:59.841Z,18.81
2024-05-09T14:25:01.471Z,18.74
2024-05-09T14:29:03.124Z,18.86
2024-05-09T14:33:06.216Z,18.72
2024-05-09T14:37:09.279Z,18.89
2024-05-09T14:41:13.214Z,18.92
2024-05-09T14:45:15.006Z,18.93
2024-05-09T14:49:17.348Z,18.95
2024-05-09T14:53:19.364Z,18.95
2024-05-09T14:57:21.122Z,18.99
2024-05-09T15:01:24.042Z,19.02
2024-05-09T15:05:25.837Z,19.00
2024-05-09T15:09:34.727Z,18.98
2024-05-09T15:13:36.597Z,19.09
2024-05-09T15:17:39.240Z,19.12
2024-05-09T15:21:40.913Z,19.20
2024-05-09T15:25:44.607Z,19.20
2024-05-09T15:29:46.355Z,19.14
2024-05-09T15:33:48.111Z,19.23
2024-05-09T15:37:49.921Z,19.14
2024-05-09T15:41:56.467Z,19.26
2024-05-09T15:45:58.087Z,19.31
2024-05-09T15:50:00.089Z,19.34
2024-05-09T15:54:01.819Z,19.22
2024-05-09T15:58:04.786Z,19.27
2024-05-09T16:02:07.797Z,19.33
2024-05-09T16:06:09.699Z,19.51
2024-05-09T16:10:16.148Z,19.34
2024-05-09T16:14:22.215Z,19.51
2024-05-09T16:18:23.988Z,19.53
2024-05-09T16:22:25.722Z,19.55
2024-05-09T16:26:27.536Z,19.58
2024-05-09T16:30:34.790Z,19.60
2024-05-09T16:34:38.513Z,19.60
2024-05-09T16:38:41.429Z,19.63
2024-05-09T16:42:43.086Z,19.66
2024-05-09T16:46:44.847Z,19.64
2024-05-09T16:50:46.433Z,19.73
2024-05-09T16:54:48.023Z,19.76
2024-05-09T16:58:49.886Z,19.50
2024-05-09T17:02:54.262Z,19.78
2024-05-09T17:06:56.526Z,19.81
2024-05-09T17:10:58.512Z,19.74
2024-05-09T17:15:00.460Z,19.84
2024-05-09T17:19:02.230Z,19.82
2024-05-09T17:23:05.861Z,19.88
2024-05-09T17:27:08.838Z,19.92
2024-05-09T17:31:10.992Z,19.93
2024-05-09T17:35:12.769Z,19.91
2024-05-09T17:39:14.424Z,19.96
2024-05-09T17:43:16.134Z,19.98
2024-05-09T17:47:17.983Z,19.92
2024-05-09T17:51:19.965Z,20.01
2024-05-09T17:55:21.726Z,20.05
2024-05-09T17:59:23.328Z,20.06
2024-05-09T18:03:25.004Z,20.03
2024-05-09T18:07:27.317Z,20.07
2024-05-09T18:11:28.992Z,20.07
2024-05-09T18:15:30.825Z,20.12
2024-05-09T18:19:32.610Z,20.14
2024-05-09T18:23:34.880Z,19.93
2024-05-09T18:27:36.645Z,20.10
2024-05-09T18:31:38.283Z,20.15
2024-05-09T18:35:42.865Z,20.10
2024-05-09T18:39:44.521Z,20.17
2024-05-09T18:43:50.228Z,20.14
2024-05-09T18:47:53.241Z,20.05
2024-05-09T18:51:55.021Z,20.11
2024-05-09T18:55:57.588Z,20.18
2024-05-09T18:59:59.772Z,20.17
2024-05-09T19:04:01.591Z,20.14
2024-05-09T19:08:03.615Z,20.16
2024-05-09T19:12:06.342Z,20.09
2024-05-09T19:16:08.096Z,20.19
2024-05-09T19:20:20.508Z,20.19
2024-05-09T19:24:29.877Z,20.01
2024-05-09T19:28:31.488Z,20.21
2024-05-09T19:32:33.152Z,20.20
2024-05-09T19:36:35.382Z,19.95
2024-05-09T19:40:37.188Z,20.17
2024-05-09T19:44:38.926Z,20.20
2024-05-09T19:48:41.024Z,20.20
2024-05-09T19:52:43.118Z,20.10
2024-05-09T19:56:45.347Z,20.16
2024-05-09T20:00:47.816Z,20.18
2024-05-09T20:04:50.714Z,20.19
2024-05-09T20:08:57.081Z,20.15
2024-05-09T20:12:58.859Z,20.14
2024-05-09T20:17:01.306Z,20.14
2024-05-09T20:21:03.036Z,20.13
2024-05-09T20:25:05.592Z,20.00
2024-05-09T20:29:07.224Z,20.08
2024-05-09T20:33:09.876Z,20.01
2024-05-09T20:37:12.098Z,20.09
2024-05-09T20:41:13.728Z,20.11
2024-05-09T20:45:15.486Z,20.09
2024-05-09T20:49:17.664Z,20.05
2024-05-09T20:53:19.454Z,20.08
2024-05-09T20:57:21.075Z,20.06
2024-05-09T21:01:22.766Z,20.05
2024-05-09T21:05:24.445Z,19.93
2024-05-09T21:09:27.956Z,20.05
2024-05-09T21:13:29.577Z,20.04
2024-05-09T21:17:31.292Z,20.04
2024-05-09T21:21:39.329Z,20.02
2024-05-09T21:25:41.061Z,20.00
2024-05-09T21:29:42.644Z,20.00
2024-05-09T21:33:44.383Z,19.91
2024-05-09T21:37:46.147Z,19.96
2024-05-09T21:41:47.723Z,19.95
2024-05-09T21:45:49.358Z,19.83
2024-05-09T21:49:51.024Z,19.90
2024-05-09T21:53:52.610Z,19.89
2024-05-09T21:57:54.202Z,19.85
2024-05-09T22:01:56.079Z,19.83
2024-05-09T22:05:57.762Z,19.81
2024-05-09T22:09:59.461Z,19.80
2024-05-09T22:14:01.079Z,19.73
2024-05-09T22:18:02.902Z,19.77
2024-05-09T22:22:04.861Z,19.74
2024-05-09T22:26:06.463Z,19.74
2024-05-09T22:30:11.926Z,19.73
2024-05-09T22:34:19.253Z,19.70
2024-05-09T22:38:20.968Z,19.69
2024-05-09T22:42:22.537Z,19.67
2024-05-09T22:46:24.192Z,19.64
2024-05-09T22:50:27.216Z,19.45
2024-05-09T22:54:34.212Z,19.56
2024-05-09T22:58:35.840Z,19.57
2024-05-09T23:02:38.009Z,19.58
2024-05-09T23:06:42.746Z,19.50
2024-05-09T23:10:44.456Z,19.54
2024-05-09T23:14:46.763Z,19.57
2024-05-09T23:18:48.567Z,19.53
2024-05-09T23:22:50.479Z,19.48
2024-05-09T23:26:52.153Z,19.52
2024-05-09T23:30:53.733Z,19.38
2024-05-09T23:34:55.463Z,19.51
2024-05-09T23:38:57.118Z,19.50
2024-05-09T23:42:58.832Z,19.48
2024-05-09T23:47:00.548Z,19.45
2024-05-09T23:51:02.229Z,19.43
2024-05-09T23:55:04.262Z,19.43
2024-05-09T23:59:06.316Z,19.26
